Portada
METAR-TAF:

METAR-TAF

Aeroports :

Srinagar, Índia

latitud: 33-59-14N, longitud: 074-46-27E, altitud: 1655 m

METAR: manca

Hora: 11:07 (05:37 UTC)

Pronòstic

L'informe es va fer fa 14 hores i 7 minuts, a les 15:30 UTC
Pronòstic vàlid del 30 a les 18 UTC al 01 a les 06 UTC
Vent 3 kt del Oest/Sud-Oest
Visibilitat: 6000 m
Temporalment
l' 01 a les 01 UTC al 01 a les 02 UTC
Visibilitat: 2500 m
boirina
Temporalment
l' 01 a les 02 UTC al 01 a les 03 UTC
Visibilitat: 4000 m
calitja

TAF: VISR 301530Z 3018/0106 24003KT 6000 TEMPO 0101/0102 2500 BR TEMPO 0102/0103 4000 HZ

Observacions i pronòstics meteorològics de més de 4000 aeroports (METAR i TAF).

Les estacions disponibles són els punts grocs i vermells al mapa.

Posi el ratolí al punt desitjat per veure el nom de l'estació.

Feu clic per veure les observacions i els pronòstics meteorològics.

Per canviar el mapa: feu clic els botons verds amb una creu de color negre per apropar; al botó verd amb un guió per allunyar la imatge; o en les fletxes verdes per a mapes adjacents.


METAR-TAF: